sensor_id;sensor_type;location;lat;lon;timestamp;P1;durP1;ratioP1;P2;durP2;ratioP2
55031;SDS011;40928;51.076;7.950;2023-05-29T00:01:31;8.77;;;3.20;;
55031;SDS011;40928;51.076;7.950;2023-05-29T00:03:57;8.45;;;3.50;;
55031;SDS011;40928;51.076;7.950;2023-05-29T00:06:23;10.13;;;3.55;;
55031;SDS011;40928;51.076;7.950;2023-05-29T00:08:49;12.70;;;4.35;;
55031;SDS011;40928;51.076;7.950;2023-05-29T00:11:15;8.15;;;3.10;;
55031;SDS011;40928;51.076;7.950;2023-05-29T00:13:41;5.25;;;2.78;;
55031;SDS011;40928;51.076;7.950;2023-05-29T00:16:06;7.25;;;2.28;;
55031;SDS011;40928;51.076;7.950;2023-05-29T00:18:34;7.03;;;2.88;;
55031;SDS011;40928;51.076;7.950;2023-05-29T00:21:01;6.82;;;2.55;;
55031;SDS011;40928;51.076;7.950;2023-05-29T00:23:27;8.35;;;3.55;;
55031;SDS011;40928;51.076;7.950;2023-05-29T00:25:53;8.40;;;2.80;;
55031;SDS011;40928;51.076;7.950;2023-05-29T00:28:19;8.65;;;2.97;;
55031;SDS011;40928;51.076;7.950;2023-05-29T00:30:45;4.35;;;2.80;;
55031;SDS011;40928;51.076;7.950;2023-05-29T00:33:12;9.85;;;3.22;;
55031;SDS011;40928;51.076;7.950;2023-05-29T00:35:39;4.88;;;2.38;;
55031;SDS011;40928;51.076;7.950;2023-05-29T00:38:06;6.88;;;3.05;;
55031;SDS011;40928;51.076;7.950;2023-05-29T00:40:32;6.50;;;2.53;;
55031;SDS011;40928;51.076;7.950;2023-05-29T00:42:58;6.18;;;3.40;;
55031;SDS011;40928;51.076;7.950;2023-05-29T00:45:24;9.52;;;2.85;;
55031;SDS011;40928;51.076;7.950;2023-05-29T00:47:51;9.30;;;2.70;;
55031;SDS011;40928;51.076;7.950;2023-05-29T00:50:17;8.05;;;3.55;;
55031;SDS011;40928;51.076;7.950;2023-05-29T00:52:46;3.92;;;2.28;;
55031;SDS011;40928;51.076;7.950;2023-05-29T00:55:12;4.95;;;2.72;;
55031;SDS011;40928;51.076;7.950;2023-05-29T00:57:39;7.47;;;2.60;;
55031;SDS011;40928;51.076;7.950;2023-05-29T01:00:14;5.80;;;2.38;;
55031;SDS011;40928;51.076;7.950;2023-05-29T01:02:43;7.32;;;2.60;;
55031;SDS011;40928;51.076;7.950;2023-05-29T01:05:12;6.97;;;3.00;;
55031;SDS011;40928;51.076;7.950;2023-05-29T01:07:38;6.40;;;3.13;;
55031;SDS011;40928;51.076;7.950;2023-05-29T01:10:05;5.28;;;3.15;;
55031;SDS011;40928;51.076;7.950;2023-05-29T01:28:25;7.63;;;2.60;;
55031;SDS011;40928;51.076;7.950;2023-05-29T01:30:55;4.57;;;2.65;;
55031;SDS011;40928;51.076;7.950;2023-05-29T01:33:26;6.43;;;2.78;;
55031;SDS011;40928;51.076;7.950;2023-05-29T01:35:53;7.85;;;2.95;;
55031;SDS011;40928;51.076;7.950;2023-05-29T01:38:19;7.05;;;2.72;;
55031;SDS011;40928;51.076;7.950;2023-05-29T01:40:47;7.40;;;3.80;;
55031;SDS011;40928;51.076;7.950;2023-05-29T01:43:13;5.30;;;3.13;;
55031;SDS011;40928;51.076;7.950;2023-05-29T01:45:41;5.00;;;2.97;;
55031;SDS011;40928;51.076;7.950;2023-05-29T01:48:07;11.82;;;3.78;;
55031;SDS011;40928;51.076;7.950;2023-05-29T01:50:34;5.15;;;3.05;;
55031;SDS011;40928;51.076;7.950;2023-05-29T01:53:00;4.53;;;2.58;;
55031;SDS011;40928;51.076;7.950;2023-05-29T01:55:26;6.35;;;2.40;;
55031;SDS011;40928;51.076;7.950;2023-05-29T01:57:52;8.93;;;3.83;;
55031;SDS011;40928;51.076;7.950;2023-05-29T02:00:20;7.53;;;3.00;;
55031;SDS011;40928;51.076;7.950;2023-05-29T02:02:46;8.70;;;2.97;;
55031;SDS011;40928;51.076;7.950;2023-05-29T02:05:13;4.30;;;2.50;;
55031;SDS011;40928;51.076;7.950;2023-05-29T02:07:39;11.60;;;3.42;;
55031;SDS011;40928;51.076;7.950;2023-05-29T02:10:05;11.02;;;3.20;;
55031;SDS011;40928;51.076;7.950;2023-05-29T02:12:31;7.43;;;2.80;;
55031;SDS011;40928;51.076;7.950;2023-05-29T02:14:57;6.35;;;3.08;;
55031;SDS011;40928;51.076;7.950;2023-05-29T02:17:23;3.67;;;2.30;;
55031;SDS011;40928;51.076;7.950;2023-05-29T02:19:50;5.50;;;2.50;;
55031;SDS011;40928;51.076;7.950;2023-05-29T02:22:17;7.55;;;2.58;;
55031;SDS011;40928;51.076;7.950;2023-05-29T02:24:43;6.68;;;2.95;;
55031;SDS011;40928;51.076;7.950;2023-05-29T02:27:13;3.70;;;2.50;;
55031;SDS011;40928;51.076;7.950;2023-05-29T02:29:40;5.22;;;2.63;;
55031;SDS011;40928;51.076;7.950;2023-05-29T02:32:07;5.80;;;2.75;;
55031;SDS011;40928;51.076;7.950;2023-05-29T02:34:33;7.95;;;2.83;;
55031;SDS011;40928;51.076;7.950;2023-05-29T02:36:59;7.55;;;3.20;;
55031;SDS011;40928;51.076;7.950;2023-05-29T02:39:24;6.03;;;2.80;;
55031;SDS011;40928;51.076;7.950;2023-05-29T02:41:50;7.43;;;2.75;;
55031;SDS011;40928;51.076;7.950;2023-05-29T02:44:16;6.60;;;3.08;;
55031;SDS011;40928;51.076;7.950;2023-05-29T02:46:41;5.78;;;3.28;;
55031;SDS011;40928;51.076;7.950;2023-05-29T02:49:14;8.35;;;4.10;;
55031;SDS011;40928;51.076;7.950;2023-05-29T02:51:39;10.07;;;4.20;;
55031;SDS011;40928;51.076;7.950;2023-05-29T02:54:10;10.90;;;4.43;;
55031;SDS011;40928;51.076;7.950;2023-05-29T02:56:37;8.43;;;3.88;;
55031;SDS011;40928;51.076;7.950;2023-05-29T02:59:03;8.98;;;3.60;;
55031;SDS011;40928;51.076;7.950;2023-05-29T03:01:29;6.57;;;3.45;;
55031;SDS011;40928;51.076;7.950;2023-05-29T03:03:55;8.10;;;4.25;;
55031;SDS011;40928;51.076;7.950;2023-05-29T03:06:23;9.60;;;3.92;;
55031;SDS011;40928;51.076;7.950;2023-05-29T03:08:49;8.98;;;4.90;;
55031;SDS011;40928;51.076;7.950;2023-05-29T03:11:15;6.60;;;4.15;;
55031;SDS011;40928;51.076;7.950;2023-05-29T03:13:41;7.15;;;4.20;;
55031;SDS011;40928;51.076;7.950;2023-05-29T03:16:09;10.02;;;4.97;;
55031;SDS011;40928;51.076;7.950;2023-05-29T03:18:37;12.35;;;5.97;;
55031;SDS011;40928;51.076;7.950;2023-05-29T03:21:04;8.52;;;4.63;;
55031;SDS011;40928;51.076;7.950;2023-05-29T03:23:33;10.77;;;5.72;;
55031;SDS011;40928;51.076;7.950;2023-05-29T03:26:00;11.88;;;5.05;;
55031;SDS011;40928;51.076;7.950;2023-05-29T03:28:27;17.42;;;6.57;;
55031;SDS011;40928;51.076;7.950;2023-05-29T03:30:53;8.88;;;5.18;;
55031;SDS011;40928;51.076;7.950;2023-05-29T03:33:20;14.93;;;6.70;;
55031;SDS011;40928;51.076;7.950;2023-05-29T03:36:12;12.90;;;6.47;;
55031;SDS011;40928;51.076;7.950;2023-05-29T03:38:39;10.93;;;6.32;;
55031;SDS011;40928;51.076;7.950;2023-05-29T03:41:05;12.52;;;6.15;;
55031;SDS011;40928;51.076;7.950;2023-05-29T03:43:32;12.75;;;6.10;;
55031;SDS011;40928;51.076;7.950;2023-05-29T03:45:58;11.80;;;6.38;;
55031;SDS011;40928;51.076;7.950;2023-05-29T03:48:28;11.15;;;6.28;;
55031;SDS011;40928;51.076;7.950;2023-05-29T03:50:54;9.27;;;5.60;;
55031;SDS011;40928;51.076;7.950;2023-05-29T03:53:26;12.30;;;6.88;;
55031;SDS011;40928;51.076;7.950;2023-05-29T03:55:52;11.32;;;6.13;;
55031;SDS011;40928;51.076;7.950;2023-05-29T03:58:18;13.95;;;6.20;;
55031;SDS011;40928;51.076;7.950;2023-05-29T04:00:44;12.18;;;6.35;;
55031;SDS011;40928;51.076;7.950;2023-05-29T04:03:12;9.23;;;5.88;;
55031;SDS011;40928;51.076;7.950;2023-05-29T04:05:40;14.85;;;6.65;;
55031;SDS011;40928;51.076;7.950;2023-05-29T04:08:07;14.40;;;6.88;;
55031;SDS011;40928;51.076;7.950;2023-05-29T04:10:34;7.30;;;5.38;;
55031;SDS011;40928;51.076;7.950;2023-05-29T04:13:00;12.23;;;6.00;;
55031;SDS011;40928;51.076;7.950;2023-05-29T04:15:26;15.52;;;6.00;;
55031;SDS011;40928;51.076;7.950;2023-05-29T04:17:54;10.20;;;5.85;;
55031;SDS011;40928;51.076;7.950;2023-05-29T04:20:20;14.38;;;5.97;;
55031;SDS011;40928;51.076;7.950;2023-05-29T04:22:46;16.00;;;7.25;;
55031;SDS011;40928;51.076;7.950;2023-05-29T04:25:12;9.95;;;5.60;;
55031;SDS011;40928;51.076;7.950;2023-05-29T04:27:38;14.10;;;6.68;;
55031;SDS011;40928;51.076;7.950;2023-05-29T04:30:08;11.30;;;5.95;;
55031;SDS011;40928;51.076;7.950;2023-05-29T04:35:09;15.18;;;6.38;;
55031;SDS011;40928;51.076;7.950;2023-05-29T04:37:41;11.52;;;5.95;;
55031;SDS011;40928;51.076;7.950;2023-05-29T04:40:10;14.00;;;6.50;;
55031;SDS011;40928;51.076;7.950;2023-05-29T04:42:36;14.60;;;6.90;;
55031;SDS011;40928;51.076;7.950;2023-05-29T04:45:06;14.00;;;6.53;;
55031;SDS011;40928;51.076;7.950;2023-05-29T04:47:35;17.15;;;7.45;;
55031;SDS011;40928;51.076;7.950;2023-05-29T04:52:42;13.18;;;6.43;;
55031;SDS011;40928;51.076;7.950;2023-05-29T04:55:09;11.25;;;5.60;;
55031;SDS011;40928;51.076;7.950;2023-05-29T04:57:36;12.27;;;6.38;;
55031;SDS011;40928;51.076;7.950;2023-05-29T05:00:05;14.18;;;7.30;;
55031;SDS011;40928;51.076;7.950;2023-05-29T05:02:35;11.68;;;7.03;;
55031;SDS011;40928;51.076;7.950;2023-05-29T05:05:02;13.13;;;6.78;;
55031;SDS011;40928;51.076;7.950;2023-05-29T05:07:29;21.50;;;7.13;;
55031;SDS011;40928;51.076;7.950;2023-05-29T05:09:55;18.15;;;7.10;;
55031;SDS011;40928;51.076;7.950;2023-05-29T05:12:25;16.05;;;6.75;;
55031;SDS011;40928;51.076;7.950;2023-05-29T05:14:53;16.60;;;6.63;;
55031;SDS011;40928;51.076;7.950;2023-05-29T05:17:19;16.30;;;7.00;;
55031;SDS011;40928;51.076;7.950;2023-05-29T05:19:45;14.88;;;5.90;;
55031;SDS011;40928;51.076;7.950;2023-05-29T05:22:14;14.77;;;7.15;;
55031;SDS011;40928;51.076;7.950;2023-05-29T05:24:41;13.13;;;6.40;;
55031;SDS011;40928;51.076;7.950;2023-05-29T05:27:08;20.13;;;7.25;;
55031;SDS011;40928;51.076;7.950;2023-05-29T05:29:34;13.75;;;6.22;;
55031;SDS011;40928;51.076;7.950;2023-05-29T05:32:00;11.52;;;5.82;;
55031;SDS011;40928;51.076;7.950;2023-05-29T05:34:27;16.48;;;6.65;;
55031;SDS011;40928;51.076;7.950;2023-05-29T05:36:52;12.85;;;6.05;;
55031;SDS011;40928;51.076;7.950;2023-05-29T05:39:19;11.98;;;5.85;;
55031;SDS011;40928;51.076;7.950;2023-05-29T05:41:47;16.20;;;6.45;;
55031;SDS011;40928;51.076;7.950;2023-05-29T05:44:20;14.63;;;6.53;;
55031;SDS011;40928;51.076;7.950;2023-05-29T05:46:50;14.70;;;6.10;;
55031;SDS011;40928;51.076;7.950;2023-05-29T05:49:16;11.95;;;6.03;;
55031;SDS011;40928;51.076;7.950;2023-05-29T05:51:42;13.60;;;5.78;;
55031;SDS011;40928;51.076;7.950;2023-05-29T05:54:08;11.25;;;6.43;;
55031;SDS011;40928;51.076;7.950;2023-05-29T05:56:34;13.35;;;5.82;;
55031;SDS011;40928;51.076;7.950;2023-05-29T05:59:02;13.30;;;6.78;;
55031;SDS011;40928;51.076;7.950;2023-05-29T06:01:28;12.85;;;5.50;;
55031;SDS011;40928;51.076;7.950;2023-05-29T06:03:54;16.52;;;6.63;;
55031;SDS011;40928;51.076;7.950;2023-05-29T06:06:21;15.23;;;6.38;;
55031;SDS011;40928;51.076;7.950;2023-05-29T06:08:48;13.25;;;7.07;;
55031;SDS011;40928;51.076;7.950;2023-05-29T06:11:15;15.15;;;7.43;;
55031;SDS011;40928;51.076;7.950;2023-05-29T06:13:44;10.45;;;6.20;;
55031;SDS011;40928;51.076;7.950;2023-05-29T06:16:17;13.13;;;6.72;;
55031;SDS011;40928;51.076;7.950;2023-05-29T06:18:43;17.45;;;6.85;;
55031;SDS011;40928;51.076;7.950;2023-05-29T06:21:11;17.40;;;7.07;;
55031;SDS011;40928;51.076;7.950;2023-05-29T06:23:43;10.82;;;5.57;;
55031;SDS011;40928;51.076;7.950;2023-05-29T06:26:10;14.93;;;6.78;;
55031;SDS011;40928;51.076;7.950;2023-05-29T06:28:37;11.93;;;6.43;;
55031;SDS011;40928;51.076;7.950;2023-05-29T06:31:03;12.48;;;5.45;;
55031;SDS011;40928;51.076;7.950;2023-05-29T06:33:30;9.80;;;5.93;;
55031;SDS011;40928;51.076;7.950;2023-05-29T06:35:56;14.52;;;6.97;;
55031;SDS011;40928;51.076;7.950;2023-05-29T06:38:23;13.15;;;6.65;;
55031;SDS011;40928;51.076;7.950;2023-05-29T06:40:49;16.67;;;6.85;;
55031;SDS011;40928;51.076;7.950;2023-05-29T06:43:15;12.73;;;5.85;;
55031;SDS011;40928;51.076;7.950;2023-05-29T06:45:46;8.90;;;5.97;;
55031;SDS011;40928;51.076;7.950;2023-05-29T06:48:11;14.25;;;6.40;;
55031;SDS011;40928;51.076;7.950;2023-05-29T06:50:38;10.05;;;5.80;;
55031;SDS011;40928;51.076;7.950;2023-05-29T06:53:36;15.10;;;7.18;;
55031;SDS011;40928;51.076;7.950;2023-05-29T06:56:05;14.48;;;6.05;;
55031;SDS011;40928;51.076;7.950;2023-05-29T06:58:32;8.80;;;4.80;;
55031;SDS011;40928;51.076;7.950;2023-05-29T07:00:59;10.52;;;5.25;;
55031;SDS011;40928;51.076;7.950;2023-05-29T07:03:31;11.55;;;6.05;;
55031;SDS011;40928;51.076;7.950;2023-05-29T07:05:58;16.70;;;8.43;;
55031;SDS011;40928;51.076;7.950;2023-05-29T07:08:25;20.88;;;6.88;;
55031;SDS011;40928;51.076;7.950;2023-05-29T07:10:52;12.10;;;6.00;;
55031;SDS011;40928;51.076;7.950;2023-05-29T07:13:19;15.30;;;7.18;;
55031;SDS011;40928;51.076;7.950;2023-05-29T07:15:47;12.18;;;7.28;;
55031;SDS011;40928;51.076;7.950;2023-05-29T07:18:16;15.90;;;5.78;;
55031;SDS011;40928;51.076;7.950;2023-05-29T07:20:42;16.83;;;5.20;;
55031;SDS011;40928;51.076;7.950;2023-05-29T07:23:12;11.93;;;4.80;;
55031;SDS011;40928;51.076;7.950;2023-05-29T07:25:39;10.43;;;4.68;;
55031;SDS011;40928;51.076;7.950;2023-05-29T07:28:05;16.08;;;5.35;;
55031;SDS011;40928;51.076;7.950;2023-05-29T07:33:04;13.35;;;5.00;;
55031;SDS011;40928;51.076;7.950;2023-05-29T07:35:31;10.18;;;4.50;;
55031;SDS011;40928;51.076;7.950;2023-05-29T07:38:01;12.77;;;4.80;;
55031;SDS011;40928;51.076;7.950;2023-05-29T07:40:27;10.55;;;5.15;;
55031;SDS011;40928;51.076;7.950;2023-05-29T07:43:11;12.20;;;5.50;;
55031;SDS011;40928;51.076;7.950;2023-05-29T07:45:47;10.57;;;4.50;;
55031;SDS011;40928;51.076;7.950;2023-05-29T07:48:13;19.95;;;5.55;;
55031;SDS011;40928;51.076;7.950;2023-05-29T07:50:41;12.38;;;4.85;;
55031;SDS011;40928;51.076;7.950;2023-05-29T07:53:07;11.32;;;4.72;;
55031;SDS011;40928;51.076;7.950;2023-05-29T07:55:35;17.42;;;5.07;;
55031;SDS011;40928;51.076;7.950;2023-05-29T07:58:04;10.80;;;4.63;;
55031;SDS011;40928;51.076;7.950;2023-05-29T08:00:38;11.90;;;4.40;;
55031;SDS011;40928;51.076;7.950;2023-05-29T08:03:05;13.40;;;5.50;;
55031;SDS011;40928;51.076;7.950;2023-05-29T08:05:33;9.00;;;4.28;;
55031;SDS011;40928;51.076;7.950;2023-05-29T08:08:04;8.25;;;4.32;;
55031;SDS011;40928;51.076;7.950;2023-05-29T08:10:34;13.43;;;4.53;;
55031;SDS011;40928;51.076;7.950;2023-05-29T08:13:02;11.00;;;4.63;;
55031;SDS011;40928;51.076;7.950;2023-05-29T08:15:31;9.23;;;5.10;;
55031;SDS011;40928;51.076;7.950;2023-05-29T08:17:58;8.85;;;4.22;;
55031;SDS011;40928;51.076;7.950;2023-05-29T08:20:31;9.98;;;4.35;;
55031;SDS011;40928;51.076;7.950;2023-05-29T08:23:00;12.93;;;4.28;;
55031;SDS011;40928;51.076;7.950;2023-05-29T08:25:31;10.50;;;4.78;;
55031;SDS011;40928;51.076;7.950;2023-05-29T08:28:05;11.40;;;4.60;;
55031;SDS011;40928;51.076;7.950;2023-05-29T08:30:33;12.88;;;4.57;;
55031;SDS011;40928;51.076;7.950;2023-05-29T08:32:58;14.00;;;4.68;;
55031;SDS011;40928;51.076;7.950;2023-05-29T08:35:25;18.70;;;4.88;;
55031;SDS011;40928;51.076;7.950;2023-05-29T08:37:51;12.70;;;4.30;;
55031;SDS011;40928;51.076;7.950;2023-05-29T08:40:17;9.93;;;4.25;;
55031;SDS011;40928;51.076;7.950;2023-05-29T08:42:55;9.73;;;3.97;;
55031;SDS011;40928;51.076;7.950;2023-05-29T08:45:24;9.15;;;3.90;;
55031;SDS011;40928;51.076;7.950;2023-05-29T08:47:53;13.43;;;4.22;;
55031;SDS011;40928;51.076;7.950;2023-05-29T08:50:20;10.82;;;3.97;;
55031;SDS011;40928;51.076;7.950;2023-05-29T08:52:51;9.35;;;3.85;;
55031;SDS011;40928;51.076;7.950;2023-05-29T08:55:17;7.00;;;3.08;;
55031;SDS011;40928;51.076;7.950;2023-05-29T08:57:43;11.00;;;3.70;;
55031;SDS011;40928;51.076;7.950;2023-05-29T09:00:13;13.98;;;3.63;;
55031;SDS011;40928;51.076;7.950;2023-05-29T09:02:43;10.27;;;3.38;;
55031;SDS011;40928;51.076;7.950;2023-05-29T09:05:09;4.95;;;3.00;;
55031;SDS011;40928;51.076;7.950;2023-05-29T09:07:42;9.55;;;3.45;;
55031;SDS011;40928;51.076;7.950;2023-05-29T09:10:09;11.90;;;3.72;;
55031;SDS011;40928;51.076;7.950;2023-05-29T09:12:35;7.03;;;2.75;;
55031;SDS011;40928;51.076;7.950;2023-05-29T09:15:03;10.13;;;3.33;;
55031;SDS011;40928;51.076;7.950;2023-05-29T09:17:42;11.55;;;3.25;;
55031;SDS011;40928;51.076;7.950;2023-05-29T09:20:14;6.63;;;2.38;;
55031;SDS011;40928;51.076;7.950;2023-05-29T09:25:17;15.70;;;3.30;;
55031;SDS011;40928;51.076;7.950;2023-05-29T09:27:50;8.90;;;2.88;;
55031;SDS011;40928;51.076;7.950;2023-05-29T09:33:20;7.63;;;2.92;;
55031;SDS011;40928;51.076;7.950;2023-05-29T09:35:49;10.65;;;3.08;;
55031;SDS011;40928;51.076;7.950;2023-05-29T09:38:16;8.45;;;2.97;;
55031;SDS011;40928;51.076;7.950;2023-05-29T09:40:42;16.63;;;6.68;;
55031;SDS011;40928;51.076;7.950;2023-05-29T09:43:18;7.45;;;2.90;;
55031;SDS011;40928;51.076;7.950;2023-05-29T09:45:46;6.22;;;2.50;;
55031;SDS011;40928;51.076;7.950;2023-05-29T09:48:14;9.70;;;2.17;;
55031;SDS011;40928;51.076;7.950;2023-05-29T09:50:48;9.68;;;2.58;;
55031;SDS011;40928;51.076;7.950;2023-05-29T09:53:18;13.82;;;2.70;;
55031;SDS011;40928;51.076;7.950;2023-05-29T09:55:46;6.75;;;2.42;;
55031;SDS011;40928;51.076;7.950;2023-05-29T09:58:13;5.75;;;2.45;;
55031;SDS011;40928;51.076;7.950;2023-05-29T10:00:44;8.15;;;2.22;;
55031;SDS011;40928;51.076;7.950;2023-05-29T10:03:11;9.38;;;3.00;;
55031;SDS011;40928;51.076;7.950;2023-05-29T10:05:41;14.30;;;7.13;;
55031;SDS011;40928;51.076;7.950;2023-05-29T10:08:14;6.25;;;2.35;;
55031;SDS011;40928;51.076;7.950;2023-05-29T10:10:46;7.15;;;2.10;;
55031;SDS011;40928;51.076;7.950;2023-05-29T10:13:18;9.15;;;2.35;;
55031;SDS011;40928;51.076;7.950;2023-05-29T10:15:48;4.93;;;2.35;;
55031;SDS011;40928;51.076;7.950;2023-05-29T10:18:36;7.82;;;1.90;;
55031;SDS011;40928;51.076;7.950;2023-05-29T10:21:03;4.40;;;1.90;;
55031;SDS011;40928;51.076;7.950;2023-05-29T10:23:54;3.47;;;1.90;;
55031;SDS011;40928;51.076;7.950;2023-05-29T10:26:22;11.07;;;1.80;;
55031;SDS011;40928;51.076;7.950;2023-05-29T10:37:52;11.70;;;2.90;;
55031;SDS011;40928;51.076;7.950;2023-05-29T10:40:23;9.55;;;1.92;;
55031;SDS011;40928;51.076;7.950;2023-05-29T10:42:52;14.57;;;2.55;;
55031;SDS011;40928;51.076;7.950;2023-05-29T10:46:08;8.48;;;1.90;;
55031;SDS011;40928;51.076;7.950;2023-05-29T10:50:41;9.23;;;1.92;;
55031;SDS011;40928;51.076;7.950;2023-05-29T10:53:08;5.78;;;2.10;;
55031;SDS011;40928;51.076;7.950;2023-05-29T10:55:36;7.72;;;2.00;;
55031;SDS011;40928;51.076;7.950;2023-05-29T10:58:21;10.63;;;2.22;;
55031;SDS011;40928;51.076;7.950;2023-05-29T11:00:51;8.13;;;2.20;;
55031;SDS011;40928;51.076;7.950;2023-05-29T11:03:24;7.80;;;1.73;;
55031;SDS011;40928;51.076;7.950;2023-05-29T11:13:49;10.43;;;2.10;;
55031;SDS011;40928;51.076;7.950;2023-05-29T11:18:59;12.80;;;2.50;;
55031;SDS011;40928;51.076;7.950;2023-05-29T11:24:15;8.13;;;2.40;;
55031;SDS011;40928;51.076;7.950;2023-05-29T11:26:47;6.45;;;2.60;;
55031;SDS011;40928;51.076;7.950;2023-05-29T11:29:14;11.23;;;2.72;;
55031;SDS011;40928;51.076;7.950;2023-05-29T11:31:41;8.85;;;3.10;;
55031;SDS011;40928;51.076;7.950;2023-05-29T11:34:13;8.30;;;1.90;;
55031;SDS011;40928;51.076;7.950;2023-05-29T11:36:41;8.48;;;2.25;;
55031;SDS011;40928;51.076;7.950;2023-05-29T11:39:09;8.68;;;2.40;;
55031;SDS011;40928;51.076;7.950;2023-05-29T11:41:35;5.72;;;1.98;;
55031;SDS011;40928;51.076;7.950;2023-05-29T11:44:01;5.60;;;2.03;;
55031;SDS011;40928;51.076;7.950;2023-05-29T11:46:31;12.00;;;2.83;;
55031;SDS011;40928;51.076;7.950;2023-05-29T11:48:58;9.88;;;2.10;;
55031;SDS011;40928;51.076;7.950;2023-05-29T11:51:25;7.80;;;3.25;;
55031;SDS011;40928;51.076;7.950;2023-05-29T11:53:52;9.65;;;3.03;;
55031;SDS011;40928;51.076;7.950;2023-05-29T11:56:27;10.57;;;2.65;;
55031;SDS011;40928;51.076;7.950;2023-05-29T11:58:54;5.65;;;1.73;;
55031;SDS011;40928;51.076;7.950;2023-05-29T12:01:25;6.60;;;2.00;;
55031;SDS011;40928;51.076;7.950;2023-05-29T12:03:53;15.63;;;2.58;;
55031;SDS011;40928;51.076;7.950;2023-05-29T12:06:32;13.75;;;2.78;;
55031;SDS011;40928;51.076;7.950;2023-05-29T12:08:59;10.02;;;3.03;;
55031;SDS011;40928;51.076;7.950;2023-05-29T12:11:27;10.02;;;3.75;;
55031;SDS011;40928;51.076;7.950;2023-05-29T12:13:58;8.43;;;2.20;;
55031;SDS011;40928;51.076;7.950;2023-05-29T12:16:30;6.50;;;2.47;;
55031;SDS011;40928;51.076;7.950;2023-05-29T12:18:59;12.68;;;2.75;;
55031;SDS011;40928;51.076;7.950;2023-05-29T12:21:26;7.50;;;2.00;;
55031;SDS011;40928;51.076;7.950;2023-05-29T12:23:52;15.13;;;2.60;;
55031;SDS011;40928;51.076;7.950;2023-05-29T12:26:23;9.70;;;2.33;;
55031;SDS011;40928;51.076;7.950;2023-05-29T12:28:50;7.00;;;2.50;;
55031;SDS011;40928;51.076;7.950;2023-05-29T12:31:28;11.80;;;2.20;;
55031;SDS011;40928;51.076;7.950;2023-05-29T12:34:00;11.63;;;2.80;;
55031;SDS011;40928;51.076;7.950;2023-05-29T12:36:41;9.95;;;3.05;;
55031;SDS011;40928;51.076;7.950;2023-05-29T12:39:10;6.07;;;1.98;;
55031;SDS011;40928;51.076;7.950;2023-05-29T12:41:38;8.40;;;2.03;;
55031;SDS011;40928;51.076;7.950;2023-05-29T12:44:05;7.70;;;2.20;;
55031;SDS011;40928;51.076;7.950;2023-05-29T12:46:35;6.45;;;2.30;;
55031;SDS011;40928;51.076;7.950;2023-05-29T12:49:12;6.55;;;2.28;;
55031;SDS011;40928;51.076;7.950;2023-05-29T12:51:43;9.00;;;2.13;;
55031;SDS011;40928;51.076;7.950;2023-05-29T12:54:10;8.68;;;2.60;;
55031;SDS011;40928;51.076;7.950;2023-05-29T12:56:38;9.27;;;2.50;;
55031;SDS011;40928;51.076;7.950;2023-05-29T12:59:08;12.10;;;2.17;;
55031;SDS011;40928;51.076;7.950;2023-05-29T13:01:35;5.97;;;2.22;;
55031;SDS011;40928;51.076;7.950;2023-05-29T13:04:04;7.78;;;1.98;;
55031;SDS011;40928;51.076;7.950;2023-05-29T13:06:37;8.48;;;2.03;;
55031;SDS011;40928;51.076;7.950;2023-05-29T13:09:04;8.55;;;1.90;;
55031;SDS011;40928;51.076;7.950;2023-05-29T13:11:32;11.80;;;2.05;;
55031;SDS011;40928;51.076;7.950;2023-05-29T13:13:58;9.63;;;2.25;;
55031;SDS011;40928;51.076;7.950;2023-05-29T13:16:25;10.57;;;2.05;;
55031;SDS011;40928;51.076;7.950;2023-05-29T13:18:51;12.57;;;2.30;;
55031;SDS011;40928;51.076;7.950;2023-05-29T13:21:16;9.70;;;2.08;;
55031;SDS011;40928;51.076;7.950;2023-05-29T13:23:43;8.63;;;2.67;;
55031;SDS011;40928;51.076;7.950;2023-05-29T13:26:10;16.63;;;3.33;;
55031;SDS011;40928;51.076;7.950;2023-05-29T13:28:37;10.70;;;2.20;;
55031;SDS011;40928;51.076;7.950;2023-05-29T13:31:02;9.48;;;3.17;;
55031;SDS011;40928;51.076;7.950;2023-05-29T13:33:30;7.85;;;2.03;;
55031;SDS011;40928;51.076;7.950;2023-05-29T13:35:55;9.38;;;2.42;;
55031;SDS011;40928;51.076;7.950;2023-05-29T13:38:21;9.32;;;3.25;;
55031;SDS011;40928;51.076;7.950;2023-05-29T13:40:47;9.15;;;2.67;;
55031;SDS011;40928;51.076;7.950;2023-05-29T13:43:12;6.82;;;2.28;;
55031;SDS011;40928;51.076;7.950;2023-05-29T13:45:42;8.68;;;2.40;;
55031;SDS011;40928;51.076;7.950;2023-05-29T13:48:09;11.88;;;2.72;;
55031;SDS011;40928;51.076;7.950;2023-05-29T13:50:36;11.50;;;2.38;;
55031;SDS011;40928;51.076;7.950;2023-05-29T13:53:03;7.80;;;1.90;;
55031;SDS011;40928;51.076;7.950;2023-05-29T13:55:29;6.20;;;2.17;;
55031;SDS011;40928;51.076;7.950;2023-05-29T13:57:54;10.55;;;2.83;;
55031;SDS011;40928;51.076;7.950;2023-05-29T14:00:23;8.20;;;2.42;;
55031;SDS011;40928;51.076;7.950;2023-05-29T14:02:50;9.63;;;1.98;;
55031;SDS011;40928;51.076;7.950;2023-05-29T14:05:16;11.80;;;2.30;;
55031;SDS011;40928;51.076;7.950;2023-05-29T14:07:43;5.68;;;1.80;;
55031;SDS011;40928;51.076;7.950;2023-05-29T14:10:11;7.70;;;2.40;;
55031;SDS011;40928;51.076;7.950;2023-05-29T14:12:38;10.70;;;2.40;;
55031;SDS011;40928;51.076;7.950;2023-05-29T14:15:04;5.43;;;2.05;;
55031;SDS011;40928;51.076;7.950;2023-05-29T14:17:33;7.03;;;2.60;;
55031;SDS011;40928;51.076;7.950;2023-05-29T14:19:58;8.73;;;2.33;;
55031;SDS011;40928;51.076;7.950;2023-05-29T14:22:29;11.20;;;2.45;;
55031;SDS011;40928;51.076;7.950;2023-05-29T14:24:55;6.55;;;2.00;;
55031;SDS011;40928;51.076;7.950;2023-05-29T14:27:24;5.25;;;2.00;;
55031;SDS011;40928;51.076;7.950;2023-05-29T14:29:52;7.30;;;1.92;;
55031;SDS011;40928;51.076;7.950;2023-05-29T14:32:18;9.70;;;2.47;;
55031;SDS011;40928;51.076;7.950;2023-05-29T14:34:44;8.07;;;2.63;;
55031;SDS011;40928;51.076;7.950;2023-05-29T14:37:10;7.28;;;2.42;;
55031;SDS011;40928;51.076;7.950;2023-05-29T14:39:37;10.02;;;2.50;;
55031;SDS011;40928;51.076;7.950;2023-05-29T14:42:04;9.23;;;2.33;;
55031;SDS011;40928;51.076;7.950;2023-05-29T14:44:30;7.57;;;1.98;;
55031;SDS011;40928;51.076;7.950;2023-05-29T14:46:56;7.57;;;2.10;;
55031;SDS011;40928;51.076;7.950;2023-05-29T14:49:24;8.80;;;2.20;;
55031;SDS011;40928;51.076;7.950;2023-05-29T14:51:53;5.85;;;1.70;;
55031;SDS011;40928;51.076;7.950;2023-05-29T14:54:19;11.63;;;2.25;;
55031;SDS011;40928;51.076;7.950;2023-05-29T14:56:45;17.45;;;2.35;;
55031;SDS011;40928;51.076;7.950;2023-05-29T14:59:14;5.47;;;1.73;;
55031;SDS011;40928;51.076;7.950;2023-05-29T15:01:39;13.18;;;2.45;;
55031;SDS011;40928;51.076;7.950;2023-05-29T15:04:05;15.73;;;3.47;;
55031;SDS011;40928;51.076;7.950;2023-05-29T15:06:32;8.60;;;1.83;;
55031;SDS011;40928;51.076;7.950;2023-05-29T15:08:59;6.85;;;2.22;;
55031;SDS011;40928;51.076;7.950;2023-05-29T15:11:28;9.32;;;2.40;;
55031;SDS011;40928;51.076;7.950;2023-05-29T15:13:58;9.43;;;2.67;;
55031;SDS011;40928;51.076;7.950;2023-05-29T15:16:28;13.27;;;2.55;;
55031;SDS011;40928;51.076;7.950;2023-05-29T15:18:54;9.55;;;3.17;;
55031;SDS011;40928;51.076;7.950;2023-05-29T15:21:24;12.35;;;2.15;;
55031;SDS011;40928;51.076;7.950;2023-05-29T15:23:51;4.82;;;1.67;;
55031;SDS011;40928;51.076;7.950;2023-05-29T15:26:17;7.75;;;2.00;;
55031;SDS011;40928;51.076;7.950;2023-05-29T15:28:44;7.70;;;1.88;;
55031;SDS011;40928;51.076;7.950;2023-05-29T15:31:10;9.18;;;2.00;;
55031;SDS011;40928;51.076;7.950;2023-05-29T15:33:37;8.23;;;2.03;;
55031;SDS011;40928;51.076;7.950;2023-05-29T15:36:06;9.35;;;2.97;;
55031;SDS011;40928;51.076;7.950;2023-05-29T15:38:33;7.25;;;2.35;;
55031;SDS011;40928;51.076;7.950;2023-05-29T15:41:00;5.15;;;2.00;;